createdAt,value
2023-02-16T00:07:13.251Z,1625.45264
2023-02-16T00:22:15.645Z,1089.12939
2023-02-16T00:37:17.915Z,844.42395
2023-02-16T00:52:20.484Z,466.58859
2023-02-16T01:07:22.804Z,155.95216
2023-02-16T01:22:25.357Z,29.16179
2023-02-16T01:37:28.252Z,1.2679
2023-02-16T01:52:30.967Z,0
2023-02-16T02:07:33.300Z,0
2023-02-16T02:22:35.980Z,0
2023-02-16T02:37:38.364Z,0
2023-02-16T02:52:42.090Z,0
2023-02-16T03:07:44.792Z,0
2023-02-16T03:22:47.529Z,0
2023-02-16T03:37:49.874Z,0
2023-02-16T03:52:52.136Z,0
2023-02-16T04:07:54.428Z,0
2023-02-16T04:22:56.680Z,0
2023-02-16T04:37:58.883Z,0
2023-02-16T04:53:01.147Z,0
2023-02-16T05:08:03.392Z,0
2023-02-16T05:23:05.757Z,0
2023-02-16T05:38:08.002Z,0
2023-02-16T05:53:10.874Z,0
2023-02-16T06:08:13.272Z,0
2023-02-16T06:23:15.518Z,0
2023-02-16T06:38:17.731Z,0
2023-02-16T06:53:20.164Z,0
2023-02-16T07:08:22.811Z,0
2023-02-16T07:23:25.061Z,0
2023-02-16T07:38:27.562Z,0
2023-02-16T07:53:29.999Z,0
2023-02-16T08:08:32.309Z,0
2023-02-16T08:23:34.419Z,0
2023-02-16T08:38:36.806Z,0
2023-02-16T08:53:39.005Z,0
2023-02-16T09:08:41.268Z,0
2023-02-16T09:23:44.790Z,0
2023-02-16T09:38:47.300Z,0
2023-02-16T09:53:49.708Z,0
2023-02-16T10:08:52.061Z,0
2023-02-16T10:23:54.402Z,0
2023-02-16T10:38:56.602Z,0
2023-02-16T10:53:58.862Z,0
2023-02-16T11:09:01.490Z,0
2023-02-16T11:24:03.710Z,0
2023-02-16T11:39:05.911Z,0
2023-02-16T11:54:08.161Z,0
2023-02-16T12:09:10.365Z,0
2023-02-16T12:24:13.911Z,0
2023-02-16T12:39:16.366Z,0
2023-02-16T12:54:18.572Z,0
2023-02-16T13:09:20.848Z,0
2023-02-16T13:24:23.092Z,0
2023-02-16T13:39:25.332Z,0
2023-02-16T13:54:27.562Z,0
2023-02-16T14:09:29.819Z,0
2023-02-16T14:24:32.090Z,0
2023-02-16T14:39:36.420Z,6.33952
2023-02-16T14:54:46.167Z,55.78777
2023-02-16T15:09:48.461Z,188.91766
2023-02-16T15:24:50.673Z,346.13773
2023-02-16T15:40:15.048Z,684.66803
2023-02-16T15:55:26.408Z,1118.29114
2023-02-16T16:10:28.648Z,1125.89856
2023-02-16T16:25:30.948Z,1217.18762
2023-02-16T16:40:33.205Z,1482.17957
2023-02-16T16:55:35.439Z,1501.19812
2023-02-16T17:10:37.721Z,1771.2616
2023-02-16T17:25:40.021Z,1995.68054
2023-02-16T17:40:42.294Z,5450.71826
2023-02-16T17:55:44.514Z,4816.7666
2023-02-16T18:10:46.767Z,4393.28662
2023-02-16T18:25:48.973Z,4769.854
2023-02-16T18:40:51.317Z,6257.10547
2023-02-16T18:55:53.583Z,3408.12549
2023-02-16T19:10:56.068Z,4262.69238
2023-02-16T19:25:58.420Z,5648.51123
2023-02-16T19:41:00.612Z,6532.24023
2023-02-16T19:56:02.983Z,4402.16211
2023-02-16T20:11:05.422Z,4284.24707
2023-02-16T20:26:07.730Z,5053.86475
2023-02-16T20:41:10.097Z,3813.85474
2023-02-16T20:56:12.413Z,3329.51538
2023-02-16T21:11:14.766Z,3472.78857
2023-02-16T21:26:16.989Z,4109.27637
2023-02-16T21:41:19.281Z,3337.1228
2023-02-16T21:56:21.490Z,3343.4624
2023-02-16T22:11:23.806Z,2785.58472
2023-02-16T22:26:26.098Z,3079.73828
2023-02-16T22:41:28.338Z,2274.61938
2023-02-16T22:56:30.640Z,1896.78406
2023-02-16T23:11:32.898Z,1383.28308
2023-02-16T23:26:35.288Z,1361.72864
2023-02-16T23:41:37.496Z,1371.87195
2023-02-16T23:56:39.741Z,986.42914
